Time;durP1;ratioP1;P1;durP2;ratioP2;P2;SDS_P1;SDS_P2;PMS_P1;PMS_P2;Temp;Humidity;BMP_temperature;BMP_pressure;BME280_temperature;BME280_humidity;BME280_pressure;Samples;Min_cycle;Max_cycle;Signal;HPM_P1;HPM_P2
2021/04/29 00:02:14;;;;;;;13.43;9.33;;;;;;;;;;5076396;28;20268;-52
2021/04/29 00:04:41;;;;;;;13.77;9.43;;;;;;;;;;5048340;28;20189;-53
2021/04/29 00:07:06;;;;;;;14.13;10.17;;;;;;;;;;5051544;28;20178;-52
2021/04/29 00:09:36;;;;;;;12.87;9.17;;;;;;;;;;5070051;28;20201;-52
2021/04/29 00:12:02;;;;;;;12.13;9.17;;;;;;;;;;5071160;28;20181;-53
2021/04/29 00:14:27;;;;;;;13.43;9.97;;;;;;;;;;5069006;28;20192;-51
2021/04/29 00:16:52;;;;;;;12.00;9.83;;;;;;;;;;5071717;28;20557;-54
2021/04/29 00:19:18;;;;;;;13.43;9.77;;;;;;;;;;5066605;28;20217;-53
2021/04/29 00:21:45;;;;;;;16.80;9.67;;;;;;;;;;5069961;28;20185;-53
2021/04/29 00:24:10;;;;;;;13.40;9.43;;;;;;;;;;5069616;28;20276;-52
2021/04/29 00:26:37;;;;;;;13.43;10.40;;;;;;;;;;5065716;28;20272;-53
2021/04/29 00:29:02;;;;;;;12.57;9.50;;;;;;;;;;5069416;28;20227;-52
2021/04/29 00:31:30;;;;;;;15.67;9.70;;;;;;;;;;5067976;28;20825;-53
2021/04/29 00:33:55;;;;;;;13.97;9.70;;;;;;;;;;5069205;28;20186;-53
2021/04/29 00:36:20;;;;;;;13.37;9.97;;;;;;;;;;5068512;28;20170;-55
2021/04/29 00:38:47;;;;;;;12.70;9.30;;;;;;;;;;5070323;28;20220;-51
2021/04/29 00:41:15;;;;;;;12.73;9.13;;;;;;;;;;5050869;28;20740;-53
2021/04/29 00:43:40;;;;;;;14.50;10.63;;;;;;;;;;5069513;28;20180;-52
2021/04/29 00:46:08;;;;;;;15.33;9.73;;;;;;;;;;5051293;28;20186;-53
2021/04/29 00:48:33;;;;;;;14.47;10.50;;;;;;;;;;5051061;28;20232;-52
2021/04/29 00:50:58;;;;;;;15.27;10.73;;;;;;;;;;5067051;28;20587;-54
2021/04/29 00:53:34;;;;;;;12.57;11.20;;;;;;;;;;5069074;28;20193;-52
2021/04/29 00:55:59;;;;;;;13.93;10.87;;;;;;;;;;5050039;28;20181;-53
2021/04/29 00:58:26;;;;;;;14.60;11.50;;;;;;;;;;5070028;28;20213;-54
2021/04/29 01:00:53;;;;;;;16.47;12.23;;;;;;;;;;5066356;28;20200;-54
2021/04/29 01:03:24;;;;;;;14.53;11.90;;;;;;;;;;5061724;28;20265;-52
2021/04/29 01:05:50;;;;;;;16.63;12.07;;;;;;;;;;5069136;28;20177;-54
2021/04/29 01:08:30;;;;;;;13.70;11.23;;;;;;;;;;5066660;28;20744;-53
2021/04/29 01:10:56;;;;;;;16.30;12.83;;;;;;;;;;5069791;28;20206;-53
2021/04/29 01:13:25;;;;;;;18.53;13.33;;;;;;;;;;5072149;28;20212;-53
2021/04/29 01:15:51;;;;;;;21.07;12.73;;;;;;;;;;5070047;28;20209;-52
2021/04/29 01:18:18;;;;;;;17.10;14.07;;;;;;;;;;5068406;28;20201;-53
2021/04/29 01:20:47;;;;;;;18.37;14.13;;;;;;;;;;5069845;28;20185;-53
2021/04/29 01:23:22;;;;;;;17.60;14.20;;;;;;;;;;5051523;28;20185;-53
2021/04/29 01:25:51;;;;;;;14.67;12.83;;;;;;;;;;5068143;28;20220;-54
2021/04/29 01:28:24;;;;;;;14.40;12.30;;;;;;;;;;5066822;28;20216;-54
2021/04/29 01:30:53;;;;;;;18.50;13.00;;;;;;;;;;5068091;28;20179;-52
2021/04/29 01:33:19;;;;;;;16.07;12.43;;;;;;;;;;5046330;28;20308;-52
2021/04/29 01:35:44;;;;;;;15.17;12.33;;;;;;;;;;5062498;28;20298;-52
2021/04/29 01:38:10;;;;;;;16.90;12.20;;;;;;;;;;5067136;28;20247;-53
2021/04/29 01:40:35;;;;;;;17.13;13.10;;;;;;;;;;5050526;28;20219;-51
2021/04/29 01:43:03;;;;;;;17.73;12.73;;;;;;;;;;5066754;28;20189;-54
2021/04/29 01:45:28;;;;;;;13.60;12.17;;;;;;;;;;5069668;28;20215;-52
2021/04/29 01:47:53;;;;;;;16.97;13.50;;;;;;;;;;5063897;28;20208;-51
2021/04/29 01:50:18;;;;;;;17.50;12.50;;;;;;;;;;5069431;28;20227;-53
2021/04/29 01:52:44;;;;;;;15.80;12.37;;;;;;;;;;5048624;28;20180;-55
2021/04/29 01:55:11;;;;;;;16.60;12.50;;;;;;;;;;5067856;28;20178;-54
2021/04/29 01:57:41;;;;;;;14.67;13.00;;;;;;;;;;5067126;28;20189;-52
2021/04/29 02:00:08;;;;;;;15.83;13.53;;;;;;;;;;5050278;28;20228;-53
2021/04/29 02:02:34;;;;;;;15.13;12.57;;;;;;;;;;5069645;28;20270;-53
2021/04/29 02:04:59;;;;;;;13.90;12.37;;;;;;;;;;5067142;28;20272;-53
2021/04/29 02:07:24;;;;;;;15.90;13.40;;;;;;;;;;5067867;28;20645;-52
2021/04/29 02:09:50;;;;;;;17.97;13.80;;;;;;;;;;5048787;28;20235;-54
2021/04/29 02:12:15;;;;;;;16.47;13.13;;;;;;;;;;5064086;28;20205;-53
2021/04/29 02:14:42;;;;;;;13.85;12.38;;;;;;;;;;5066362;28;20181;-53
2021/04/29 02:17:13;;;;;;;18.10;13.57;;;;;;;;;;5067004;28;20185;-55
2021/04/29 02:19:39;;;;;;;14.00;12.40;;;;;;;;;;5044165;28;20214;-53
2021/04/29 02:22:05;;;;;;;16.20;12.57;;;;;;;;;;5065002;28;20669;-51
2021/04/29 02:24:33;;;;;;;14.83;13.20;;;;;;;;;;5041571;28;20238;-52
2021/04/29 02:27:01;;;;;;;15.13;12.60;;;;;;;;;;5061140;28;20173;-52
2021/04/29 02:29:26;;;;;;;14.53;12.70;;;;;;;;;;5047937;28;20219;-53
2021/04/29 02:31:52;;;;;;;15.93;12.60;;;;;;;;;;5068517;28;20641;-52
2021/04/29 02:34:20;;;;;;;15.97;12.03;;;;;;;;;;5061412;28;20189;-53
2021/04/29 02:36:46;;;;;;;13.20;11.60;;;;;;;;;;5064314;28;20263;-52
2021/04/29 02:39:14;;;;;;;15.33;12.07;;;;;;;;;;5060977;28;20619;-53
2021/04/29 02:41:39;;;;;;;13.97;11.63;;;;;;;;;;5064497;28;20295;-54
2021/04/29 02:44:07;;;;;;;15.10;12.17;;;;;;;;;;5068591;28;20238;-52
2021/04/29 02:46:33;;;;;;;13.70;12.20;;;;;;;;;;5070840;28;20311;-54
2021/04/29 02:48:58;;;;;;;14.60;12.27;;;;;;;;;;5066286;28;20304;-53
2021/04/29 02:51:23;;;;;;;15.13;12.17;;;;;;;;;;5068070;28;20200;-53
2021/04/29 02:53:51;;;;;;;16.70;13.03;;;;;;;;;;5067959;28;20315;-54
2021/04/29 02:56:16;;;;;;;13.83;11.83;;;;;;;;;;5066716;28;20181;-53
2021/04/29 02:58:48;;;;;;;14.27;12.37;;;;;;;;;;5063135;28;20288;-52
2021/04/29 03:01:14;;;;;;;16.67;13.10;;;;;;;;;;5063904;28;20169;-52
2021/04/29 03:03:44;;;;;;;16.47;13.47;;;;;;;;;;5064424;28;20192;-52
2021/04/29 03:06:09;;;;;;;16.03;12.93;;;;;;;;;;5069450;28;20266;-53
2021/04/29 03:08:34;;;;;;;15.37;13.37;;;;;;;;;;5083888;22;20252;-53
2021/04/29 03:11:02;;;;;;;14.97;13.37;;;;;;;;;;5084132;28;20169;-54
2021/04/29 03:13:27;;;;;;;15.03;13.03;;;;;;;;;;5089130;28;20184;-53
2021/04/29 03:15:52;;;;;;;15.53;13.27;;;;;;;;;;5083055;28;20389;-52
2021/04/29 03:18:18;;;;;;;16.60;13.90;;;;;;;;;;5085577;28;20208;-54
2021/04/29 03:20:43;;;;;;;14.23;12.73;;;;;;;;;;5081358;28;20256;-53
2021/04/29 03:23:11;;;;;;;14.87;13.37;;;;;;;;;;5071161;28;20374;-53
2021/04/29 03:25:38;;;;;;;15.30;13.63;;;;;;;;;;5077420;28;20188;-52
2021/04/29 03:28:03;;;;;;;13.63;12.23;;;;;;;;;;5080092;28;20202;-53
2021/04/29 03:30:31;;;;;;;14.87;12.73;;;;;;;;;;5089192;28;20177;-53
2021/04/29 03:32:59;;;;;;;15.07;13.53;;;;;;;;;;5088735;28;20175;-54
2021/04/29 03:35:26;;;;;;;16.70;13.27;;;;;;;;;;5086854;28;20632;-53
2021/04/29 03:37:52;;;;;;;15.77;13.30;;;;;;;;;;5081958;28;20258;-53
2021/04/29 03:40:22;;;;;;;15.87;13.47;;;;;;;;;;5079708;28;20208;-53
2021/04/29 03:42:52;;;;;;;14.63;12.40;;;;;;;;;;5088622;28;20187;-53
2021/04/29 03:45:19;;;;;;;14.30;12.70;;;;;;;;;;5083259;28;20204;-53
2021/04/29 03:47:44;;;;;;;15.93;13.30;;;;;;;;;;5086285;28;20198;-52
2021/04/29 03:50:12;;;;;;;14.57;13.00;;;;;;;;;;5062501;28;20728;-51
2021/04/29 03:52:37;;;;;;;14.40;11.97;;;;;;;;;;5087215;28;20280;-53
2021/04/29 03:55:02;;;;;;;15.93;12.57;;;;;;;;;;5086753;28;20275;-53
2021/04/29 03:57:28;;;;;;;14.57;12.67;;;;;;;;;;5070191;28;20227;-54
2021/04/29 03:59:55;;;;;;;17.67;12.50;;;;;;;;;;5088256;28;20243;-52
2021/04/29 04:02:22;;;;;;;13.83;12.03;;;;;;;;;;5086837;28;20177;-52
2021/04/29 04:04:48;;;;;;;14.70;12.47;;;;;;;;;;5082021;28;20174;-53
2021/04/29 04:07:13;;;;;;;13.27;11.77;;;;;;;;;;5082746;28;20719;-51
2021/04/29 04:09:41;;;;;;;16.70;12.53;;;;;;;;;;5068943;28;20295;-52
2021/04/29 04:12:08;;;;;;;13.53;12.23;;;;;;;;;;5089311;28;20184;-54
2021/04/29 04:14:38;;;;;;;14.07;12.60;;;;;;;;;;5086307;28;20189;-53
2021/04/29 04:17:06;;;;;;;16.60;12.70;;;;;;;;;;5087473;28;20227;-53
2021/04/29 04:19:33;;;;;;;14.10;12.60;;;;;;;;;;5087428;28;20212;-53
2021/04/29 04:22:00;;;;;;;14.97;11.93;;;;;;;;;;5086853;28;20313;-52
2021/04/29 04:24:28;;;;;;;16.63;12.77;;;;;;;;;;5085047;28;20185;-53
2021/04/29 04:26:53;;;;;;;13.13;11.73;;;;;;;;;;5082939;28;20184;-53
2021/04/29 04:29:18;;;;;;;12.83;11.53;;;;;;;;;;5083496;28;20197;-53
2021/04/29 04:31:46;;;;;;;15.33;12.80;;;;;;;;;;5079978;28;20250;-52
2021/04/29 04:34:11;;;;;;;16.23;12.57;;;;;;;;;;5088157;28;20188;-53
2021/04/29 04:36:39;;;;;;;13.67;12.27;;;;;;;;;;5083219;28;20184;-51
2021/04/29 04:39:04;;;;;;;14.47;12.70;;;;;;;;;;5083949;28;20206;-53
2021/04/29 04:41:32;;;;;;;15.17;12.73;;;;;;;;;;5079559;28;20185;-53
2021/04/29 04:43:57;;;;;;;13.60;12.20;;;;;;;;;;5082502;28;20177;-53
2021/04/29 04:46:24;;;;;;;15.03;12.27;;;;;;;;;;5083519;28;20284;-53
2021/04/29 04:48:52;;;;;;;15.10;12.77;;;;;;;;;;5081888;28;20215;-51
2021/04/29 04:51:17;;;;;;;16.00;13.27;;;;;;;;;;5083921;28;20211;-53
2021/04/29 04:53:45;;;;;;;15.13;13.50;;;;;;;;;;5086201;28;20196;-52
2021/04/29 04:56:10;;;;;;;15.07;13.47;;;;;;;;;;5080799;28;20202;-51
2021/04/29 04:58:35;;;;;;;15.33;13.43;;;;;;;;;;5081807;28;20208;-51
2021/04/29 05:01:03;;;;;;;15.33;13.67;;;;;;;;;;5085337;28;20600;-53
2021/04/29 05:03:28;;;;;;;15.57;13.87;;;;;;;;;;5063880;28;20602;-52
2021/04/29 05:05:53;;;;;;;18.67;14.87;;;;;;;;;;5076806;28;20256;-51
2021/04/29 05:08:21;;;;;;;15.17;13.63;;;;;;;;;;5073977;28;20259;-53
2021/04/29 05:10:49;;;;;;;15.93;14.23;;;;;;;;;;5062764;28;20196;-54
2021/04/29 05:13:14;;;;;;;18.63;14.27;;;;;;;;;;5071263;28;20533;-53
2021/04/29 05:15:44;;;;;;;17.67;13.77;;;;;;;;;;5077290;28;20270;-53
2021/04/29 05:18:11;;;;;;;15.47;13.60;;;;;;;;;;5084350;28;20215;-53
2021/04/29 05:20:41;;;;;;;16.33;14.27;;;;;;;;;;5072303;28;20184;-53
2021/04/29 05:23:08;;;;;;;16.50;14.80;;;;;;;;;;5087367;28;20185;-56
2021/04/29 05:25:34;;;;;;;16.67;14.67;;;;;;;;;;5066372;28;20176;-54
2021/04/29 05:28:02;;;;;;;16.03;14.33;;;;;;;;;;5076433;28;20200;-54
2021/04/29 05:30:29;;;;;;;16.90;14.67;;;;;;;;;;5076182;28;20177;-53
2021/04/29 05:32:58;;;;;;;15.83;14.20;;;;;;;;;;5080541;28;20240;-51
2021/04/29 05:35:25;;;;;;;17.20;15.20;;;;;;;;;;5082923;28;20256;-53
2021/04/29 05:37:52;;;;;;;20.63;14.83;;;;;;;;;;5085485;28;20203;-52
2021/04/29 05:40:22;;;;;;;15.67;13.73;;;;;;;;;;5085130;28;20250;-53
2021/04/29 05:42:47;;;;;;;14.67;13.17;;;;;;;;;;5070151;28;20207;-51
2021/04/29 05:45:16;;;;;;;15.50;13.90;;;;;;;;;;5081684;28;20202;-51
2021/04/29 05:47:41;;;;;;;17.30;14.37;;;;;;;;;;5085032;28;20231;-54
2021/04/29 05:50:07;;;;;;;19.53;15.63;;;;;;;;;;5087191;28;20212;-53
2021/04/29 05:52:34;;;;;;;20.17;15.10;;;;;;;;;;5065462;28;20280;-51
2021/04/29 05:55:00;;;;;;;18.47;15.20;;;;;;;;;;5086723;28;20188;-54
2021/04/29 05:57:25;;;;;;;18.77;15.20;;;;;;;;;;5083728;28;20188;-53
2021/04/29 05:59:52;;;;;;;20.57;16.07;;;;;;;;;;5084357;28;20596;-52
2021/04/29 06:02:18;;;;;;;24.10;18.67;;;;;;;;;;5084102;28;20873;-51
2021/04/29 06:04:43;;;;;;;22.93;15.40;;;;;;;;;;5084647;28;20164;-52
2021/04/29 06:07:13;;;;;;;20.33;16.00;;;;;;;;;;5082771;28;20177;-54
2021/04/29 06:09:38;;;;;;;15.30;12.23;;;;;;;;;;5084639;28;20215;-53
2021/04/29 06:12:08;;;;;;;19.27;14.33;;;;;;;;;;5083118;28;20180;-53
2021/04/29 06:14:36;;;;;;;12.10;8.23;;;;;;;;;;5086217;28;20200;-53
2021/04/29 06:17:02;;;;;;;16.77;12.60;;;;;;;;;;5083626;28;20184;-51
2021/04/29 06:19:27;;;;;;;19.10;13.20;;;;;;;;;;5080944;28;20209;-54
2021/04/29 06:21:52;;;;;;;17.23;13.27;;;;;;;;;;5082251;28;20554;-53
2021/04/29 06:24:20;;;;;;;23.20;15.97;;;;;;;;;;5073513;28;22560;-51
2021/04/29 06:26:47;;;;;;;15.33;11.73;;;;;;;;;;5082114;28;20192;-52
2021/04/29 06:29:15;;;;;;;18.90;13.80;;;;;;;;;;5064729;28;20242;-53
2021/04/29 06:31:41;;;;;;;15.50;12.30;;;;;;;;;;5067267;28;20173;-54
2021/04/29 06:34:06;;;;;;;20.17;15.47;;;;;;;;;;5067382;28;20644;-52
2021/04/29 06:36:34;;;;;;;18.40;14.37;;;;;;;;;;5062446;28;20200;-51
2021/04/29 06:38:59;;;;;;;14.87;11.97;;;;;;;;;;5079089;28;20221;-51
2021/04/29 06:41:25;;;;;;;22.70;17.23;;;;;;;;;;5082216;28;20185;-52
2021/04/29 06:43:50;;;;;;;23.87;18.30;;;;;;;;;;5078495;28;20191;-54
2021/04/29 06:46:15;;;;;;;18.60;16.67;;;;;;;;;;5087624;28;20180;-53
2021/04/29 06:48:45;;;;;;;22.97;19.13;;;;;;;;;;5084957;28;20200;-51
2021/04/29 06:51:10;;;;;;;17.10;15.27;;;;;;;;;;5084769;28;20187;-54
2021/04/29 06:53:35;;;;;;;20.67;16.43;;;;;;;;;;5076306;28;20185;-53
2021/04/29 06:56:01;;;;;;;20.03;16.87;;;;;;;;;;5087903;28;20253;-53
2021/04/29 06:58:31;;;;;;;20.47;17.37;;;;;;;;;;5078691;28;20595;-52
2021/04/29 07:00:58;;;;;;;20.23;16.23;;;;;;;;;;5084542;28;20188;-54
2021/04/29 07:03:23;;;;;;;23.20;17.63;;;;;;;;;;5081843;28;20188;-52
2021/04/29 07:05:53;;;;;;;23.50;19.93;;;;;;;;;;5086964;28;20169;-53
2021/04/29 07:08:18;;;;;;;21.83;17.47;;;;;;;;;;5085454;28;20305;-52
2021/04/29 07:10:49;;;;;;;21.87;19.23;;;;;;;;;;5086185;28;20210;-52
2021/04/29 07:13:14;;;;;;;22.77;20.00;;;;;;;;;;5081983;28;20192;-51
2021/04/29 07:15:42;;;;;;;20.43;17.93;;;;;;;;;;5088615;28;20172;-51
2021/04/29 07:18:09;;;;;;;21.27;18.17;;;;;;;;;;5079892;28;20840;-52
2021/04/29 07:20:37;;;;;;;21.17;18.73;;;;;;;;;;5079586;28;21969;-53
2021/04/29 07:23:03;;;;;;;22.50;18.10;;;;;;;;;;5065771;28;20587;-51
2021/04/29 07:25:28;;;;;;;20.50;18.23;;;;;;;;;;5083925;28;20188;-52
2021/04/29 07:27:53;;;;;;;20.17;16.57;;;;;;;;;;5080998;28;20229;-51
2021/04/29 07:30:21;;;;;;;19.43;17.33;;;;;;;;;;5085052;28;20193;-52
2021/04/29 07:32:46;;;;;;;22.53;17.27;;;;;;;;;;5081419;28;20673;-51
2021/04/29 07:35:15;;;;;;;20.27;15.87;;;;;;;;;;5080055;28;20189;-53
2021/04/29 07:37:42;;;;;;;19.93;17.17;;;;;;;;;;5066313;28;20204;-50
2021/04/29 07:40:08;;;;;;;20.43;17.13;;;;;;;;;;5064465;28;20204;-52
2021/04/29 07:42:33;;;;;;;19.10;15.87;;;;;;;;;;5086914;28;20185;-53
2021/04/29 07:45:03;;;;;;;19.43;16.37;;;;;;;;;;5069130;28;20211;-50
2021/04/29 07:47:28;;;;;;;19.07;16.57;;;;;;;;;;5082802;28;20191;-53
2021/04/29 07:49:56;;;;;;;20.33;18.23;;;;;;;;;;5083149;28;20177;-51
2021/04/29 07:52:23;;;;;;;24.40;18.70;;;;;;;;;;5084512;28;20189;-53
2021/04/29 07:54:51;;;;;;;22.90;20.40;;;;;;;;;;5064044;28;20656;-51
2021/04/29 07:57:20;;;;;;;21.20;18.77;;;;;;;;;;5079912;28;20557;-53
2021/04/29 07:59:48;;;;;;;19.07;17.00;;;;;;;;;;5085583;28;20193;-52
2021/04/29 08:02:13;;;;;;;18.03;16.20;;;;;;;;;;5081407;28;20188;-50
2021/04/29 08:04:38;;;;;;;21.53;18.70;;;;;;;;;;5086246;28;20173;-52
2021/04/29 08:07:03;;;;;;;19.77;16.50;;;;;;;;;;5065405;28;20268;-50
2021/04/29 08:09:31;;;;;;;20.80;18.60;;;;;;;;;;5067939;28;20239;-52
2021/04/29 08:11:59;;;;;;;18.93;16.93;;;;;;;;;;5075958;28;20272;-53
2021/04/29 08:14:24;;;;;;;22.93;17.30;;;;;;;;;;5065718;28;20618;-51
2021/04/29 08:16:51;;;;;;;19.73;17.43;;;;;;;;;;5064038;28;20184;-51
2021/04/29 08:19:19;;;;;;;20.27;18.17;;;;;;;;;;5083527;28;20204;-51
2021/04/29 08:21:44;;;;;;;20.00;17.63;;;;;;;;;;5066047;28;20609;-52
2021/04/29 08:24:10;;;;;;;18.17;16.27;;;;;;;;;;5082806;28;20189;-49
2021/04/29 08:26:36;;;;;;;18.73;16.47;;;;;;;;;;5081677;28;20172;-49
2021/04/29 08:29:04;;;;;;;20.80;17.37;;;;;;;;;;5075396;28;20693;-52
2021/04/29 08:31:31;;;;;;;20.30;17.27;;;;;;;;;;5084078;28;20576;-51
2021/04/29 08:34:01;;;;;;;20.20;18.03;;;;;;;;;;5083781;28;20649;-51
2021/04/29 08:36:30;;;;;;;20.33;18.23;;;;;;;;;;5079582;28;20697;-56
2021/04/29 08:38:55;;;;;;;21.00;18.80;;;;;;;;;;5075003;28;20204;-54
2021/04/29 08:41:21;;;;;;;20.97;17.57;;;;;;;;;;5076722;28;20261;-54
2021/04/29 08:43:51;;;;;;;19.57;17.37;;;;;;;;;;5084913;28;20196;-54
2021/04/29 08:46:21;;;;;;;21.20;18.40;;;;;;;;;;5079656;28;20180;-52
2021/04/29 08:48:50;;;;;;;20.00;17.93;;;;;;;;;;5078714;28;20219;-52
2021/04/29 08:51:18;;;;;;;20.80;18.57;;;;;;;;;;5069685;28;20180;-54
2021/04/29 08:53:43;;;;;;;22.13;17.70;;;;;;;;;;5065747;28;20193;-53
2021/04/29 08:56:11;;;;;;;18.03;15.80;;;;;;;;;;5069823;28;20286;-51
2021/04/29 08:58:36;;;;;;;22.03;17.70;;;;;;;;;;5080981;28;20227;-53
2021/04/29 09:01:02;;;;;;;19.53;17.00;;;;;;;;;;5085015;28;20271;-53
2021/04/29 09:03:29;;;;;;;22.67;18.53;;;;;;;;;;5068786;28;20173;-53
2021/04/29 09:06:03;;;;;;;18.07;16.07;;;;;;;;;;5082058;28;20184;-51
2021/04/29 09:08:33;;;;;;;20.23;16.80;;;;;;;;;;5083934;28;20276;-51
2021/04/29 09:11:09;;;;;;;17.83;15.13;;;;;;;;;;5085548;28;20215;-52
2021/04/29 09:13:35;;;;;;;18.23;16.33;;;;;;;;;;5084278;28;20189;-51
2021/04/29 09:16:08;;;;;;;18.23;16.37;;;;;;;;;;5082094;28;20681;-52
2021/04/29 09:18:36;;;;;;;18.93;16.93;;;;;;;;;;5082638;28;20254;-54
2021/04/29 09:21:05;;;;;;;21.37;15.27;;;;;;;;;;5084433;28;20243;-51
2021/04/29 09:23:32;;;;;;;14.63;13.13;;;;;;;;;;5082647;28;20173;-53
2021/04/29 09:25:58;;;;;;;15.50;13.90;;;;;;;;;;5083483;28;20208;-52
2021/04/29 09:28:37;;;;;;;14.70;13.20;;;;;;;;;;5085229;28;20203;-51
2021/04/29 09:31:03;;;;;;;15.70;13.80;;;;;;;;;;5081011;28;20552;-50
2021/04/29 09:33:35;;;;;;;17.10;15.30;;;;;;;;;;5084462;28;20165;-53
2021/04/29 09:36:02;;;;;;;16.50;14.83;;;;;;;;;;5066822;28;20280;-52
2021/04/29 09:38:33;;;;;;;17.33;15.63;;;;;;;;;;5082668;28;20242;-50
2021/04/29 09:40:59;;;;;;;16.90;15.13;;;;;;;;;;5085172;28;20188;-51
2021/04/29 09:43:26;;;;;;;16.50;14.83;;;;;;;;;;5085144;28;20837;-52
2021/04/29 09:45:55;;;;;;;17.20;15.43;;;;;;;;;;5088139;28;20242;-49
2021/04/29 09:48:22;;;;;;;19.70;16.17;;;;;;;;;;5086513;28;20193;-52
2021/04/29 09:50:51;;;;;;;17.33;15.53;;;;;;;;;;5078019;28;20633;-52
2021/04/29 09:53:18;;;;;;;18.03;16.23;;;;;;;;;;5086067;28;20698;-51
2021/04/29 09:55:47;;;;;;;18.13;16.17;;;;;;;;;;5080139;28;20230;-51
2021/04/29 09:58:15;;;;;;;;;;;;;;;;;;;;;
2021/04/29 10:00:44;;;;;;;18.27;16.47;;;;;;;;;;5083968;28;20652;-51
2021/04/29 10:03:09;;;;;;;18.23;16.23;;;;;;;;;;5081304;28;20182;-53
2021/04/29 10:05:39;;;;;;;16.57;14.87;;;;;;;;;;5086199;28;20264;-51
2021/04/29 10:08:05;;;;;;;16.33;14.63;;;;;;;;;;5070692;28;20581;-54
2021/04/29 10:10:35;;;;;;;16.00;14.40;;;;;;;;;;5082821;28;20253;-51
2021/04/29 10:13:01;;;;;;;17.00;15.30;;;;;;;;;;5083897;28;20187;-55
2021/04/29 10:15:27;;;;;;;16.87;15.20;;;;;;;;;;5082362;28;20172;-51
2021/04/29 10:17:54;;;;;;;19.83;14.30;;;;;;;;;;5086006;28;20192;-51
2021/04/29 10:20:25;;;;;;;17.53;14.30;;;;;;;;;;5087509;28;20585;-51
2021/04/29 10:22:54;;;;;;;18.20;15.43;;;;;;;;;;5083232;28;20665;-51
2021/04/29 10:25:34;;;;;;;16.83;14.97;;;;;;;;;;5086935;28;20203;-53
2021/04/29 10:28:00;;;;;;;16.47;14.67;;;;;;;;;;5084483;28;20636;-51
2021/04/29 10:30:32;;;;;;;16.97;15.20;;;;;;;;;;5082687;28;20277;-49
2021/04/29 10:32:57;;;;;;;18.47;16.40;;;;;;;;;;5063231;28;20280;-51
2021/04/29 10:35:26;;;;;;;18.90;16.97;;;;;;;;;;5066653;28;20791;-53
2021/04/29 10:37:54;;;;;;;18.17;16.07;;;;;;;;;;5082535;28;20769;-52
2021/04/29 10:40:33;;;;;;;17.63;15.70;;;;;;;;;;5082708;28;20201;-52
2021/04/29 10:42:59;;;;;;;17.40;15.60;;;;;;;;;;5080638;28;20185;-52
2021/04/29 10:45:26;;;;;;;17.27;15.57;;;;;;;;;;5085577;28;20183;-51
2021/04/29 10:48:02;;;;;;;17.17;15.37;;;;;;;;;;5082781;28;20206;-52
2021/04/29 10:50:27;;;;;;;16.07;14.47;;;;;;;;;;5080651;28;20241;-53
2021/04/29 10:52:56;;;;;;;16.07;14.47;;;;;;;;;;5083423;28;20177;-52
2021/04/29 10:55:27;;;;;;;16.73;15.07;;;;;;;;;;5084853;28;20314;-51
2021/04/29 10:57:53;;;;;;;16.20;14.57;;;;;;;;;;5064847;28;20200;-53
2021/04/29 11:00:21;;;;;;;16.65;14.40;;;;;;;;;;5083318;28;20291;-52
2021/04/29 11:03:02;;;;;;;15.75;14.35;;;;;;;;;;5084240;28;20264;-51
2021/04/29 11:05:28;;;;;;;13.80;12.50;;;;;;;;;;5069594;28;20172;-52
2021/04/29 11:07:56;;;;;;;15.75;14.35;;;;;;;;;;5059673;28;20200;-52
2021/04/29 11:10:25;;;;;;;15.82;14.35;;;;;;;;;;5084636;28;20224;-51
2021/04/29 11:12:54;;;;;;;15.82;14.35;;;;;;;;;;5063761;28;20184;-53
2021/04/29 11:15:28;;;;;;;15.30;13.77;;;;;;;;;;5081875;28;20653;-52
2021/04/29 11:18:00;;;;;;;15.18;13.77;;;;;;;;;;5061979;28;20208;-52
2021/04/29 11:20:26;;;;;;;14.32;12.93;;;;;;;;;;5075053;28;20208;-53
2021/04/29 11:22:56;;;;;;;14.15;12.75;;;;;;;;;;5076466;28;20253;-52
2021/04/29 11:25:23;;;;;;;13.80;12.20;;;;;;;;;;5079371;28;20231;-51
2021/04/29 11:27:54;;;;;;;13.68;12.35;;;;;;;;;;5080258;28;20199;-52
2021/04/29 11:30:23;;;;;;;14.82;13.23;;;;;;;;;;5079039;28;20188;-50
2021/04/29 11:32:52;;;;;;;14.07;12.77;;;;;;;;;;5080628;28;20792;-51
2021/04/29 11:35:28;;;;;;;13.45;12.15;;;;;;;;;;5087826;28;20664;-51
2021/04/29 11:37:53;;;;;;;15.98;12.27;;;;;;;;;;5083950;28;20584;-51
2021/04/29 11:40:21;;;;;;;13.43;12.13;;;;;;;;;;5088263;28;20201;-52
2021/04/29 11:42:53;;;;;;;11.93;10.50;;;;;;;;;;5076157;28;20180;-53
2021/04/29 11:45:20;;;;;;;10.85;9.75;;;;;;;;;;5064758;28;20718;-50
2021/04/29 11:47:56;;;;;;;15.10;10.80;;;;;;;;;;5080377;28;20212;-53
2021/04/29 11:50:24;;;;;;;12.65;10.32;;;;;;;;;;5085682;28;20191;-50
2021/04/29 11:52:50;;;;;;;8.45;7.50;;;;;;;;;;5088799;28;20804;-49
2021/04/29 11:55:24;;;;;;;7.53;6.28;;;;;;;;;;5087691;28;20260;-53
2021/04/29 11:57:52;;;;;;;9.48;5.35;;;;;;;;;;5077746;28;20295;-51
2021/04/29 12:00:30;;;;;;;9.63;8.13;;;;;;;;;;5086200;28;20287;-51
2021/04/29 12:02:56;;;;;;;8.90;7.67;;;;;;;;;;5087191;28;20177;-50
2021/04/29 12:05:36;;;;;;;11.60;8.73;;;;;;;;;;5069309;28;20185;-52
2021/04/29 12:08:02;;;;;;;13.30;9.03;;;;;;;;;;5083932;28;20216;-52
2021/04/29 12:10:41;;;;;;;11.30;9.10;;;;;;;;;;5084064;28;20193;-51
2021/04/29 12:13:06;;;;;;;15.53;9.70;;;;;;;;;;5087541;28;20697;-51
2021/04/29 12:15:32;;;;;;;6.67;3.93;;;;;;;;;;5086683;28;20192;-52
2021/04/29 12:17:59;;;;;;;4.67;3.40;;;;;;;;;;5080302;28;20216;-51
2021/04/29 12:20:26;;;;;;;4.00;2.60;;;;;;;;;;5078100;28;20291;-50
2021/04/29 12:22:52;;;;;;;6.10;4.20;;;;;;;;;;5083020;28;20222;-49
2021/04/29 12:25:23;;;;;;;6.60;4.50;;;;;;;;;;5082020;28;20177;-49
2021/04/29 12:27:48;;;;;;;4.90;4.40;;;;;;;;;;5081847;28;20833;-50
2021/04/29 12:30:13;;;;;;;6.23;4.00;;;;;;;;;;5065001;28;20189;-52
2021/04/29 12:32:42;;;;;;;4.67;4.23;;;;;;;;;;5082842;28;20196;-54
2021/04/29 12:35:11;;;;;;;4.70;3.30;;;;;;;;;;5081111;28;20597;-51
2021/04/29 12:37:36;;;;;;;4.63;4.00;;;;;;;;;;5080962;28;20295;-52
2021/04/29 12:40:03;;;;;;;4.40;3.67;;;;;;;;;;5081401;28;20287;-51
2021/04/29 12:42:28;;;;;;;6.43;3.40;;;;;;;;;;5081169;28;20641;-53
2021/04/29 12:44:58;;;;;;;4.70;4.03;;;;;;;;;;5063320;28;20242;-51
2021/04/29 12:47:33;;;;;;;10.00;5.10;;;;;;;;;;5079758;28;20199;-51
2021/04/29 12:50:02;;;;;;;5.30;4.80;;;;;;;;;;5079120;28;20192;-50
2021/04/29 12:52:27;;;;;;;6.50;5.40;;;;;;;;;;5082193;28;20212;-50
2021/04/29 12:54:53;;;;;;;9.73;5.53;;;;;;;;;;5080768;28;20188;-50
2021/04/29 12:57:25;;;;;;;6.37;4.60;;;;;;;;;;5081581;28;20263;-51
2021/04/29 12:59:53;;;;;;;4.63;4.13;;;;;;;;;;5083931;28;20633;-52
2021/04/29 13:02:22;;;;;;;5.00;3.30;;;;;;;;;;5083586;28;20780;-51
2021/04/29 13:04:57;;;;;;;4.87;4.00;;;;;;;;;;5070651;28;20176;-52
2021/04/29 13:07:23;;;;;;;4.77;3.60;;;;;;;;;;5079884;28;20181;-52
2021/04/29 13:09:49;;;;;;;7.80;6.40;;;;;;;;;;5087101;28;20231;-52
2021/04/29 13:12:16;;;;;;;7.13;6.13;;;;;;;;;;5068637;28;20264;-52
2021/04/29 13:14:44;;;;;;;9.30;6.67;;;;;;;;;;5085261;28;20661;-51
2021/04/29 13:17:13;;;;;;;7.13;5.23;;;;;;;;;;5066909;28;20187;-51
2021/04/29 13:19:41;;;;;;;6.00;5.20;;;;;;;;;;5084402;28;20216;-52
2021/04/29 13:22:07;;;;;;;5.33;3.83;;;;;;;;;;5083945;28;20671;-51
2021/04/29 13:24:32;;;;;;;5.10;4.03;;;;;;;;;;5086795;28;20169;-52
2021/04/29 13:26:58;;;;;;;7.67;4.73;;;;;;;;;;5083521;28;20196;-50
2021/04/29 13:29:24;;;;;;;5.43;4.03;;;;;;;;;;5085834;28;20231;-52
2021/04/29 13:31:49;;;;;;;5.17;4.00;;;;;;;;;;5085561;28;20616;-53
2021/04/29 13:34:17;;;;;;;4.90;4.40;;;;;;;;;;5083925;28;20185;-52
2021/04/29 13:36:42;;;;;;;5.63;4.83;;;;;;;;;;5082219;28;20618;-52
2021/04/29 13:39:10;;;;;;;5.63;4.87;;;;;;;;;;5083072;28;20216;-51
2021/04/29 13:41:35;;;;;;;6.60;5.20;;;;;;;;;;5082441;28;20249;-52
2021/04/29 13:44:05;;;;;;;6.60;6.00;;;;;;;;;;5083139;28;20262;-49
2021/04/29 13:46:32;;;;;;;7.37;6.07;;;;;;;;;;5080648;28;20745;-51
2021/04/29 13:48:57;;;;;;;7.80;7.00;;;;;;;;;;5085638;28;20274;-50
2021/04/29 13:51:23;;;;;;;7.17;5.93;;;;;;;;;;5084389;28;20648;-50
2021/04/29 13:53:51;;;;;;;5.80;4.27;;;;;;;;;;5084112;28;20265;-50
2021/04/29 13:56:18;;;;;;;3.97;3.40;;;;;;;;;;5085538;28;20173;-53
2021/04/29 13:58:45;;;;;;;5.10;4.63;;;;;;;;;;5062179;28;20300;-50
2021/04/29 14:01:12;;;;;;;6.20;4.40;;;;;;;;;;5081077;28;20183;-52
2021/04/29 14:03:40;;;;;;;6.23;4.80;;;;;;;;;;5083877;28;20181;-51
2021/04/29 14:06:06;;;;;;;7.63;5.60;;;;;;;;;;5080271;28;20176;-52
2021/04/29 14:08:34;;;;;;;5.03;4.17;;;;;;;;;;5083232;28;20580;-53
2021/04/29 14:11:03;;;;;;;4.47;3.30;;;;;;;;;;5078426;28;20302;-53
2021/04/29 14:13:30;;;;;;;3.30;2.83;;;;;;;;;;5084517;28;20654;-52
2021/04/29 14:15:58;;;;;;;4.77;4.27;;;;;;;;;;5087707;28;20684;-51
2021/04/29 14:18:23;;;;;;;6.47;5.73;;;;;;;;;;5080024;28;20200;-52
2021/04/29 14:20:51;;;;;;;11.93;9.63;;;;;;;;;;5080478;28;20177;-51
2021/04/29 14:23:16;;;;;;;8.73;7.83;;;;;;;;;;5063625;28;20179;-51
2021/04/29 14:25:44;;;;;;;9.23;8.07;;;;;;;;;;5082061;28;20176;-52